Questo sito fa uso di cookie per migliorare l’esperienza di navigazione degli utenti e per raccogliere informazioni sull’utilizzo del sito stesso. Proseguendo nella navigazione si accetta l’uso dei cookie; in caso contrario è possibile abbandonare il sito.

[source: ADDS]
METAR
LIPA 211955Z 03005KT 9999 FEW100 M01/M01 Q1038 RMK FEW VIS MIN 9999 WIND THR05 /////KT WIND THR23 /////KT A3066 BLU =
TAF LIPA 211700Z 2118/2203 24003KT CAVOK LIPB 211950Z 00000KT CAVOK M03/M09 Q1040 RMK MON INVIS =
TAF LIPB 211700Z 2118/2218 VRB04KT 9999 FEW020 LIPC 211955Z 24005KT CAVOK 02/01 Q1040 RMK SCT SCT200 VIS MIN 9999 WIND THR11 /////KT WIND THR29 24005KT BLU =
TAF LIPC 212000Z 2121/2206 26003KT 9999 FEW040 PROB30 TEMPO 22012206 5000 BR SCT040 LIPE 211950Z 21004KT CAVOK 03/M00 Q1039 =
TAF LIPE 211700Z 2118/2218 VRB05KT 9999 FEW040 PROB40 TEMPO 2200/2206 3000 BR LIPF 211755Z 23002KT CAVOK 03/M01 Q1040 RMK SKC VIS MIN 9999 =
LIPH 211950Z 27002KT CAVOK 03/M01 Q1039 =
TAF LIPH 211700Z 2118/2218 VRB05KT 9999 FEW020 PROB40 TEMPO 2200/2206 4000 BR LIPI 211655Z 26003KT 9999 FEW110 03/M03 Q1039 RMK FEW VIS MIN 9999 WIND THR06 28003KT WIND THR24 28003KT BLU =
TAF LIPI 211400Z 2115/2124 27003KT CAVOK LIPK 211650Z 00000KT CAVOK 03/M05 Q1039 =
LIPL 211955Z 35001KT CAVOK 02/02 Q1038 RMK SCT SCT200 VIS MIN 9999 WIND THR31 /////KT WIND THR13 03001KT BLU =
TAF LIPL 211700Z 2118/2203 28003KT CAVOK LIPO 211950Z 36002KT CAVOK 02/M01 Q1039 =
TAF LIPO 211700Z 2118/2218 VRB05KT CAVOK LIPQ 211950Z VRB01KT CAVOK M01/M03 Q1039 =
TAF LIPQ 211700Z 2118/2218 02005KT 9999 FEW030 PROB40 TEMPO 2200/2206 4000 BR LIPR 211950Z 19003KT 8000 NSC 02/M00 Q1039 =
TAF LIPR 212000Z 2121/2206 VRB05KT 9999 FEW040 LIPS 211955Z /////KT CAVOK 02/01 Q1038 RMK SCT SCT200 VIS MIN 9999 WIND THR26 27003KT WIND THR08 31002KT BLU =
TAF LIPS 211700Z 2118/2203 VRB03KT CAVOK LIPX 211950Z 31003KT CAVOK 03/M02 Q1039 =
TAF LIPX 212000Z 2121/2206 VRB05KT CAVOK LIPY 211950Z VRB02KT 7000 FEW030 06/03 Q1039 =
TAF LIPY 211700Z 2118/2218 VRB05KT 9999 FEW040 LIPZ 211950Z 28003KT CAVOK 04/M01 Q1039 NOSIG =
TAF LIPZ 211700Z 2118/2224 VRB05KT 9999 FEW020 PROB40 TEMPO 2200/2206 3000 BR LIVD 211755Z /////KT CAVOK M04/M09 Q1038 RMK SKC VIS MIN 9999 =
LIVE 211955Z 00000KT CAVOK M04/M08 Q1038 RMK SKC VIS MIN 9999 =
LIVF 211955Z 10003KT 9999 BKN017 SCT025 03/01 Q1035 RMK OVC MON CIME INC NC VAL NIL VIS MIN 9999 =
LIVM 211955Z AUTO 24002KT //// 03/01 Q1040 =
LIVO 211755Z 00000KT CAVOK M03/M06 Q1037 RMK SKC VIS MIN 9999 =
LIVP 211955Z 35007KT CAVOK 00/M30 Q1035 RMK SCT SCT200 MON LIB VAL NIL VIS MIN 9999 =
LIVR 211755Z 00000KT CAVOK 01/M26 Q1034 RMK SKC MON LIB VIS MIN 9999 =
LIVT 211755Z /////KT CAVOK 05/01 Q1038 RMK SKC QUK / QUL / VIS MAR 20 KM VIS MIN 9999 =
LIMC 211950Z 02002KT CAVOK M01/M03 Q1039 NOSIG =
TAF LIMC 211700Z 2118/2224 VRB05KT CAVOK LIME 211950Z 36003KT CAVOK 02/M01 Q1039 NOSIG =
TAF LIME 211700Z 2118/2218 VRB05KT CAVOK LIMF 211950Z 26002KT CAVOK 01/M04 Q1039 =
TAF LIMF 211700Z 2118/2218 VRB05KT CAVOK LIMG 211650Z 03015G29KT 360V060 9999 BKN070 12/M11 Q1036 =
LIMH 211955Z 13020KT 9999 BKN050 M09/M14 Q1033 RMK BKN MON LIB VAL NIL VIS MIN 9999 =
LIMJ 211950Z 02016KT CAVOK 07/M04 Q1036 =
TAF LIMJ 211700Z 2118/2218 02015KT 9999 SCT070 BECMG 2118/2121 04005KT LIMK 211955Z 00000KT CAVOK 03/M11 Q1037 RMK BKN FEW100 BKN200 VAL NIL VIS MIN 9999 =
LIML 211950Z 25001KT CAVOK 02/M00 Q1039 NOSIG =
TAF LIML 211700Z 2118/2218 VRB05KT CAVOK LIMN 211755Z 00000KT CAVOK 02/M00 Q1039 RMK BKN BKN200 VIS MIN 9999 BLU =
TAF LIMN 211700Z 2118/2203 VRB03KT CAVOK BECMG 2120/2122 8000 SCT050 LIMS 211755Z 21002KT 8000 NSC 02/02 Q1038 RMK BKN SCT110 SCT200 VIS MIN 8000 WIND THR30 22003KT BLU =
LIMU 211955Z 01010KT CAVOK 10/M07 Q1034 RMK BKN FEW090 SCT200 QUK / QUL / VIS MAR 30 KM VIS MIN 9999 =
LIMV 211755Z /////KT CAVOK 02/M03 Q1037 RMK SCT SCT090 MON LIB VAL NIL VIS MIN 9999 =
LIMY 211755Z /////KT CAVOK 03/M03 Q1038 RMK BKN BKN070 VAL FOSCHIA VIS MIN 9999 =
TAF
TAF LIPA 211700Z 2118/2203 24003KT CAVOK =
TAF LIPB 211700Z 2118/2218 VRB04KT 9999 FEW020 =
TAF LIPC 212000Z 2121/2206 26003KT 9999 FEW040 PROB30 TEMPO 22012206 5000 BR SCT040 =
TAF LIPE 211700Z 2118/2218 VRB05KT 9999 FEW040 PROB40 TEMPO 2200/2206 3000 BR =
TAF LIPH 211700Z 2118/2218 VRB05KT 9999 FEW020 PROB40 TEMPO 2200/2206 4000 BR =
TAF LIPI 211400Z 2115/2124 27003KT CAVOK =
TAF LIPL 211700Z 2118/2203 28003KT CAVOK =
TAF LIPO 211700Z 2118/2218 VRB05KT CAVOK =
TAF LIPQ 211700Z 2118/2218 02005KT 9999 FEW030 PROB40 TEMPO 2200/2206 4000 BR =
TAF LIPR 212000Z 2121/2206 VRB05KT 9999 FEW040 =
TAF LIPS 211700Z 2118/2203 VRB03KT CAVOK =
TAF LIPX 212000Z 2121/2206 VRB05KT CAVOK =
TAF LIPY 211700Z 2118/2218 VRB05KT 9999 FEW040 =
TAF LIPZ 211700Z 2118/2224 VRB05KT 9999 FEW020 PROB40 TEMPO 2200/2206 3000 BR =
TAF LIMC 211700Z 2118/2224 VRB05KT CAVOK =
TAF LIME 211700Z 2118/2218 VRB05KT CAVOK =
TAF LIMF 211700Z 2118/2218 VRB05KT CAVOK =
TAF LIMJ 211700Z 2118/2218 02015KT 9999 SCT070 BECMG 2118/2121 04005KT =
TAF LIML 211700Z 2118/2218 VRB05KT CAVOK =
TAF LIMN 211700Z 2118/2203 VRB03KT CAVOK BECMG 2120/2122 8000 SCT050 =
SR / SS: 06:44 / 16:03 UTC (Effemeridi Aeroporto di Padova - LIPU 2020-01-21)

Immagini e previsioni meteo non aeronautiche

 

 

 

Immagini dal Radar Meteorologico del sito ARPAV. Orario UTC.

 

Immagine dal sito Meteo Sat Online

 

Legenda codici ICAO del nord Italia

 

In ordine di codice   In ordine di località
LIMC
Milano / Malpensa LIMG Albenga
LIME Bergamo / Orio Al Serio LIPA Aviano
LIMF Torino / Caselle LIME Bergamo / Orio Al Serio
LIMG Albenga LIPE Bologna / Borgo Panigale
LIMH Pian Rosa LIPB Bolzano
LIMJ Genova / Sestri LIPL Brescia / Ghedi
LIMK Torino / Bric Della Croce LIPO Brescia / Montichiari
LIML Milano / Linate LIMU Capo Mele
LIMN Novara / Cameri LIPC Cervia
LIMO Monte Bisbino LIVD Dobbiaco
LIMS Piacenza LIPP Dova Area Control Center
LIMT Passo Della Cisa LIPY Falconara
LIMU Capo Mele LIPF Ferrara
LIMV Passo Dei Giovi LIPK Forli
LIMY Monte Malanotte LIVF Frontone
LIPA Aviano LIMJ Genova / Sestri
LIPB Bolzano LIML Milano / Linate
LIPC Cervia
LIMC
Milano / Malpensa
LIPD Udine / Campoformido LIMO Monte Bisbino
LIPE Bologna / Borgo Panigale LIVC Monte Cimone
LIPF Ferrara LIMY Monte Malanotte
LIPH Treviso / S. Angelo LIMN Novara / Cameri
LIPI Udine / Rivolto LIPU Padova
LIPK Forli LIVP Paganella
LIPL Brescia / Ghedi LIMV Passo Dei Giovi
LIPO Brescia / Montichiari LIMT Passo Della Cisa
LIPP Dova Area Control Center LIVR Passo Rolle
LIPQ Ronchi Dei Legionari LIMS Piacenza
LIPR Rimini LIMH Pian Rosa
LIPS Treviso / Istrana LIVM Punta Marina
LIPT Vicenza LIVE Resia Pass
LIPU Padova LIPR Rimini
LIPX Verona / Villafranca LIPQ Ronchi Dei Legionari
LIPY Falconara LIVO Tarvisio
LIPZ Venezia / Tessera LIMK Torino / Bric Della Croce
LIVC Monte Cimone LIMF Torino / Caselle
LIVD Dobbiaco LIPS Treviso / Istrana
LIVE Resia Pass LIPH Treviso / S. Angelo
LIVF Frontone LIVT
Trieste
LIVM Punta Marina LIPD Udine / Campoformido
LIVO Tarvisio LIPI Udine / Rivolto
LIVP Paganella LIPZ Venezia / Tessera
LIVR Passo Rolle LIPX Verona / Villafranca
LIVT Trieste LIPT Vicenza

 

 

 

 

 

 

 

 

 

 

 

 

 

 

 

 

 

 

 

 

 

 

 

 

 

 

 

 

 

 

 

 

 

 

 

 

 

 

 

 

 

 

 

 

 

 

 

 

 

 

 

 

 

 

 

 

 

 

 

 

L'Aeroclub di Padova si limita a riportare informazioni fornite da terze parti, e non ha quindi alcuna responsabilità sul contenuto. Per la pianificazione dei propri voli si raccomanda l'utilizzo delle fonti ufficiali.

Copyright 2011. Free joomla templates | © Aeroclub Padova - Scuola di Volo, Ditta di manutenzione, CAMO Via Sorio, 89 - 35141 Padova Tel. 049 8718599 Fax 049 8717699 info@aeroclubpadova.it